sensor_id;sensor_type;location;lat;lon;timestamp;temperature;humidity
4699;DHT22;33708;49.466;11.176;2023-09-18T00:02:18;16.40;99.90
4699;DHT22;33708;49.466;11.176;2023-09-18T00:04:44;16.40;83.40
4699;DHT22;33708;49.466;11.176;2023-09-18T00:07:10;16.30;99.90
4699;DHT22;33708;49.466;11.176;2023-09-18T00:09:37;16.40;99.90
4699;DHT22;33708;49.466;11.176;2023-09-18T00:12:03;16.40;99.90
4699;DHT22;33708;49.466;11.176;2023-09-18T00:14:29;16.40;99.90
4699;DHT22;33708;49.466;11.176;2023-09-18T00:16:54;16.40;99.90
4699;DHT22;33708;49.466;11.176;2023-09-18T00:19:22;16.30;99.90
4699;DHT22;33708;49.466;11.176;2023-09-18T00:22:22;16.20;99.90
4699;DHT22;33708;49.466;11.176;2023-09-18T00:24:50;15.90;99.90
4699;DHT22;33708;49.466;11.176;2023-09-18T00:27:15;16.40;99.90
4699;DHT22;33708;49.466;11.176;2023-09-18T00:29:42;16.30;99.90
4699;DHT22;33708;49.466;11.176;2023-09-18T00:32:07;16.20;99.90
4699;DHT22;33708;49.466;11.176;2023-09-18T00:34:33;16.10;86.40
4699;DHT22;33708;49.466;11.176;2023-09-18T00:36:59;16.10;99.90
4699;DHT22;33708;49.466;11.176;2023-09-18T00:39:25;16.20;99.90
4699;DHT22;33708;49.466;11.176;2023-09-18T00:41:51;16.10;94.40
4699;DHT22;33708;49.466;11.176;2023-09-18T00:44:20;16.10;96.30
4699;DHT22;33708;49.466;11.176;2023-09-18T00:46:45;15.60;99.90
4699;DHT22;33708;49.466;11.176;2023-09-18T00:49:11;16.00;91.30
4699;DHT22;33708;49.466;11.176;2023-09-18T00:51:38;16.00;95.20
4699;DHT22;33708;49.466;11.176;2023-09-18T00:54:03;16.00;98.70
4699;DHT22;33708;49.466;11.176;2023-09-18T00:56:29;15.90;92.00
4699;DHT22;33708;49.466;11.176;2023-09-18T00:58:55;15.80;99.90
4699;DHT22;33708;49.466;11.176;2023-09-18T01:01:20;15.70;99.90
4699;DHT22;33708;49.466;11.176;2023-09-18T01:03:49;15.80;99.90
4699;DHT22;33708;49.466;11.176;2023-09-18T01:06:16;15.90;99.90
4699;DHT22;33708;49.466;11.176;2023-09-18T01:08:42;15.80;99.90
4699;DHT22;33708;49.466;11.176;2023-09-18T01:11:19;15.90;99.90
4699;DHT22;33708;49.466;11.176;2023-09-18T01:16:53;15.70;68.70
4699;DHT22;33708;49.466;11.176;2023-09-18T01:19:35;15.60;75.70
4699;DHT22;33708;49.466;11.176;2023-09-18T01:22:01;15.60;94.10
4699;DHT22;33708;49.466;11.176;2023-09-18T01:24:26;15.60;99.90
4699;DHT22;33708;49.466;11.176;2023-09-18T01:26:52;15.50;99.90
4699;DHT22;33708;49.466;11.176;2023-09-18T01:29:18;15.50;92.10
4699;DHT22;33708;49.466;11.176;2023-09-18T01:31:45;15.50;93.80
4699;DHT22;33708;49.466;11.176;2023-09-18T01:34:15;15.40;99.90
4699;DHT22;33708;49.466;11.176;2023-09-18T01:36:43;15.50;99.90
4699;DHT22;33708;49.466;11.176;2023-09-18T01:39:10;15.60;96.10
4699;DHT22;33708;49.466;11.176;2023-09-18T01:41:37;15.60;85.50
4699;DHT22;33708;49.466;11.176;2023-09-18T01:44:04;15.50;80.80
4699;DHT22;33708;49.466;11.176;2023-09-18T01:46:33;15.50;88.60
4699;DHT22;33708;49.466;11.176;2023-09-18T01:49:04;15.40;99.90
4699;DHT22;33708;49.466;11.176;2023-09-18T01:58:26;13.80;87.10
4699;DHT22;33708;49.466;11.176;2023-09-18T02:00:52;15.90;77.70
4699;DHT22;33708;49.466;11.176;2023-09-18T02:03:44;15.70;99.90
4699;DHT22;33708;49.466;11.176;2023-09-18T02:06:29;15.30;54.60
4699;DHT22;33708;49.466;11.176;2023-09-18T02:09:21;15.90;56.30
4699;DHT22;33708;49.466;11.176;2023-09-18T02:11:56;15.50;87.10
4699;DHT22;33708;49.466;11.176;2023-09-18T02:17:38;15.40;75.50
4699;DHT22;33708;49.466;11.176;2023-09-18T02:20:06;15.30;69.30
4699;DHT22;33708;49.466;11.176;2023-09-18T02:22:37;15.20;84.00
4699;DHT22;33708;49.466;11.176;2023-09-18T02:25:04;15.10;93.40
4699;DHT22;33708;49.466;11.176;2023-09-18T02:27:30;15.10;96.70
4699;DHT22;33708;49.466;11.176;2023-09-18T02:29:56;15.20;87.60
4699;DHT22;33708;49.466;11.176;2023-09-18T02:32:21;15.30;72.70
4699;DHT22;33708;49.466;11.176;2023-09-18T02:34:47;15.40;58.60
4699;DHT22;33708;49.466;11.176;2023-09-18T02:37:12;15.20;61.00
4699;DHT22;33708;49.466;11.176;2023-09-18T02:39:38;15.10;88.00
4699;DHT22;33708;49.466;11.176;2023-09-18T02:42:03;15.10;65.90
4699;DHT22;33708;49.466;11.176;2023-09-18T02:44:29;15.20;65.10
4699;DHT22;33708;49.466;11.176;2023-09-18T02:46:55;15.20;61.60
4699;DHT22;33708;49.466;11.176;2023-09-18T02:49:20;15.20;50.80
4699;DHT22;33708;49.466;11.176;2023-09-18T02:51:46;15.20;50.90
4699;DHT22;33708;49.466;11.176;2023-09-18T02:54:11;15.10;52.10
4699;DHT22;33708;49.466;11.176;2023-09-18T02:56:37;14.80;53.30
4699;DHT22;33708;49.466;11.176;2023-09-18T02:59:03;15.10;65.30
4699;DHT22;33708;49.466;11.176;2023-09-18T03:01:29;15.00;63.10
4699;DHT22;33708;49.466;11.176;2023-09-18T03:03:54;15.10;76.40
4699;DHT22;33708;49.466;11.176;2023-09-18T03:06:20;15.00;64.50
4699;DHT22;33708;49.466;11.176;2023-09-18T03:08:46;15.00;63.90
4699;DHT22;33708;49.466;11.176;2023-09-18T03:11:12;15.10;58.80
4699;DHT22;33708;49.466;11.176;2023-09-18T03:13:46;15.40;53.20
4699;DHT22;33708;49.466;11.176;2023-09-18T03:16:12;14.90;53.10
4699;DHT22;33708;49.466;11.176;2023-09-18T03:18:38;14.90;62.50
4699;DHT22;33708;49.466;11.176;2023-09-18T03:21:04;14.90;70.60
4699;DHT22;33708;49.466;11.176;2023-09-18T03:23:30;14.90;76.00
4699;DHT22;33708;49.466;11.176;2023-09-18T03:25:55;14.90;69.10
4699;DHT22;33708;49.466;11.176;2023-09-18T03:28:21;15.00;74.80
4699;DHT22;33708;49.466;11.176;2023-09-18T03:30:46;14.90;57.60
4699;DHT22;33708;49.466;11.176;2023-09-18T03:33:12;14.90;57.50
4699;DHT22;33708;49.466;11.176;2023-09-18T03:35:48;14.80;66.70
4699;DHT22;33708;49.466;11.176;2023-09-18T03:38:14;14.70;67.20
4699;DHT22;33708;49.466;11.176;2023-09-18T03:40:40;14.70;69.60
4699;DHT22;33708;49.466;11.176;2023-09-18T03:43:06;14.60;74.30
4699;DHT22;33708;49.466;11.176;2023-09-18T03:45:32;14.80;76.00
4699;DHT22;33708;49.466;11.176;2023-09-18T03:47:58;14.80;68.40
4699;DHT22;33708;49.466;11.176;2023-09-18T03:50:23;14.80;60.00
4699;DHT22;33708;49.466;11.176;2023-09-18T03:52:49;14.70;68.60
4699;DHT22;33708;49.466;11.176;2023-09-18T03:55:14;14.50;72.30
4699;DHT22;33708;49.466;11.176;2023-09-18T03:57:42;14.70;59.80
4699;DHT22;33708;49.466;11.176;2023-09-18T04:00:07;14.30;60.30
4699;DHT22;33708;49.466;11.176;2023-09-18T04:02:33;14.70;54.30
4699;DHT22;33708;49.466;11.176;2023-09-18T04:05:00;14.80;56.40
4699;DHT22;33708;49.466;11.176;2023-09-18T04:07:25;14.60;55.00
4699;DHT22;33708;49.466;11.176;2023-09-18T04:09:51;14.60;67.60
4699;DHT22;33708;49.466;11.176;2023-09-18T04:12:16;14.70;68.00
4699;DHT22;33708;49.466;11.176;2023-09-18T04:14:43;14.70;59.80
4699;DHT22;33708;49.466;11.176;2023-09-18T04:17:08;14.80;53.00
4699;DHT22;33708;49.466;11.176;2023-09-18T04:19:34;14.80;61.80
4699;DHT22;33708;49.466;11.176;2023-09-18T04:21:59;14.80;53.70
4699;DHT22;33708;49.466;11.176;2023-09-18T04:24:26;14.90;47.70
4699;DHT22;33708;49.466;11.176;2023-09-18T04:26:51;14.80;47.30
4699;DHT22;33708;49.466;11.176;2023-09-18T04:29:18;14.90;44.60
4699;DHT22;33708;49.466;11.176;2023-09-18T04:31:44;14.90;99.90
4699;DHT22;33708;49.466;11.176;2023-09-18T04:34:10;15.10;72.20
4699;DHT22;33708;49.466;11.176;2023-09-18T04:36:36;15.20;51.00
4699;DHT22;33708;49.466;11.176;2023-09-18T04:39:03;15.40;39.90
4699;DHT22;33708;49.466;11.176;2023-09-18T04:41:30;15.50;40.90
4699;DHT22;33708;49.466;11.176;2023-09-18T04:43:56;15.70;38.60
4699;DHT22;33708;49.466;11.176;2023-09-18T04:46:21;15.80;41.30
4699;DHT22;33708;49.466;11.176;2023-09-18T04:48:47;15.80;60.20
4699;DHT22;33708;49.466;11.176;2023-09-18T04:51:12;15.70;55.20
4699;DHT22;33708;49.466;11.176;2023-09-18T04:53:38;15.90;52.60
4699;DHT22;33708;49.466;11.176;2023-09-18T04:56:04;15.90;57.10
4699;DHT22;33708;49.466;11.176;2023-09-18T04:58:31;15.80;57.90
4699;DHT22;33708;49.466;11.176;2023-09-18T05:00:58;15.90;69.40
4699;DHT22;33708;49.466;11.176;2023-09-18T05:03:24;15.70;72.40
4699;DHT22;33708;49.466;11.176;2023-09-18T05:05:50;16.20;73.90
4699;DHT22;33708;49.466;11.176;2023-09-18T05:08:16;16.00;70.10
4699;DHT22;33708;49.466;11.176;2023-09-18T05:10:42;16.00;70.60
4699;DHT22;33708;49.466;11.176;2023-09-18T05:13:09;16.20;69.70
4699;DHT22;33708;49.466;11.176;2023-09-18T05:15:35;16.40;55.80
4699;DHT22;33708;49.466;11.176;2023-09-18T05:18:00;16.30;54.50
4699;DHT22;33708;49.466;11.176;2023-09-18T05:20:28;16.50;56.40
4699;DHT22;33708;49.466;11.176;2023-09-18T05:22:55;16.70;73.00
4699;DHT22;33708;49.466;11.176;2023-09-18T05:25:22;16.80;53.10
4699;DHT22;33708;49.466;11.176;2023-09-18T05:27:49;16.70;52.90
4699;DHT22;33708;49.466;11.176;2023-09-18T05:30:29;17.00;52.20
4699;DHT22;33708;49.466;11.176;2023-09-18T05:32:56;17.10;54.10
4699;DHT22;33708;49.466;11.176;2023-09-18T05:35:22;17.30;51.30
4699;DHT22;33708;49.466;11.176;2023-09-18T05:37:49;17.50;50.60
4699;DHT22;33708;49.466;11.176;2023-09-18T05:40:16;17.70;48.40
4699;DHT22;33708;49.466;11.176;2023-09-18T05:42:43;17.80;45.40
4699;DHT22;33708;49.466;11.176;2023-09-18T05:45:09;18.00;47.80
4699;DHT22;33708;49.466;11.176;2023-09-18T05:47:36;18.20;43.50
4699;DHT22;33708;49.466;11.176;2023-09-18T05:50:03;18.40;44.60
4699;DHT22;33708;49.466;11.176;2023-09-18T05:52:32;18.50;45.00
4699;DHT22;33708;49.466;11.176;2023-09-18T05:55:02;18.50;40.50
4699;DHT22;33708;49.466;11.176;2023-09-18T05:57:28;18.40;37.20
4699;DHT22;33708;49.466;11.176;2023-09-18T05:59:55;18.50;42.10
4699;DHT22;33708;49.466;11.176;2023-09-18T06:02:21;18.80;42.00
4699;DHT22;33708;49.466;11.176;2023-09-18T06:04:46;18.80;37.70
4699;DHT22;33708;49.466;11.176;2023-09-18T06:07:12;18.80;35.30
4699;DHT22;33708;49.466;11.176;2023-09-18T06:09:38;19.20;35.70
4699;DHT22;33708;49.466;11.176;2023-09-18T06:12:04;18.90;35.60
4699;DHT22;33708;49.466;11.176;2023-09-18T06:14:31;19.40;39.00
4699;DHT22;33708;49.466;11.176;2023-09-18T06:16:57;19.10;35.40
4699;DHT22;33708;49.466;11.176;2023-09-18T06:19:22;19.30;34.70
4699;DHT22;33708;49.466;11.176;2023-09-18T06:21:48;19.40;36.10
4699;DHT22;33708;49.466;11.176;2023-09-18T06:24:14;19.60;34.50
4699;DHT22;33708;49.466;11.176;2023-09-18T06:26:39;19.40;33.50
4699;DHT22;33708;49.466;11.176;2023-09-18T06:29:05;19.50;33.10
4699;DHT22;33708;49.466;11.176;2023-09-18T06:31:31;19.50;33.90
4699;DHT22;33708;49.466;11.176;2023-09-18T06:33:57;19.90;33.60
4699;DHT22;33708;49.466;11.176;2023-09-18T06:36:22;19.80;29.40
4699;DHT22;33708;49.466;11.176;2023-09-18T06:38:48;19.60;29.10
4699;DHT22;33708;49.466;11.176;2023-09-18T06:41:14;19.90;32.00
4699;DHT22;33708;49.466;11.176;2023-09-18T06:43:39;20.10;30.00
4699;DHT22;33708;49.466;11.176;2023-09-18T06:46:07;20.40;34.70
4699;DHT22;33708;49.466;11.176;2023-09-18T06:48:32;21.80;42.80
4699;DHT22;33708;49.466;11.176;2023-09-18T06:50:59;22.70;40.70
4699;DHT22;33708;49.466;11.176;2023-09-18T06:53:26;23.20;41.90
4699;DHT22;33708;49.466;11.176;2023-09-18T06:55:53;25.00;72.40
4699;DHT22;33708;49.466;11.176;2023-09-18T06:58:19;24.90;76.90
4699;DHT22;33708;49.466;11.176;2023-09-18T07:00:44;23.90;72.50
4699;DHT22;33708;49.466;11.176;2023-09-18T07:03:10;23.40;73.00
4699;DHT22;33708;49.466;11.176;2023-09-18T07:05:36;23.20;72.70
4699;DHT22;33708;49.466;11.176;2023-09-18T07:08:02;25.70;91.60
4699;DHT22;33708;49.466;11.176;2023-09-18T07:10:30;27.20;85.60
4699;DHT22;33708;49.466;11.176;2023-09-18T07:12:56;28.10;67.90
4699;DHT22;33708;49.466;11.176;2023-09-18T07:15:22;29.40;69.40
4699;DHT22;33708;49.466;11.176;2023-09-18T07:17:47;30.50;99.90
4699;DHT22;33708;49.466;11.176;2023-09-18T07:20:13;32.10;99.90
4699;DHT22;33708;49.466;11.176;2023-09-18T07:22:48;32.80;99.90
4699;DHT22;33708;49.466;11.176;2023-09-18T07:25:14;33.60;1.00
4699;DHT22;33708;49.466;11.176;2023-09-18T07:27:40;33.60;1.00
4699;DHT22;33708;49.466;11.176;2023-09-18T07:30:10;34.00;99.90
4699;DHT22;33708;49.466;11.176;2023-09-18T07:32:36;34.50;99.90
4699;DHT22;33708;49.466;11.176;2023-09-18T07:35:02;36.30;99.90
4699;DHT22;33708;49.466;11.176;2023-09-18T07:37:30;36.50;99.90
4699;DHT22;33708;49.466;11.176;2023-09-18T07:39:55;35.50;1.00
4699;DHT22;33708;49.466;11.176;2023-09-18T07:42:24;36.10;1.00
4699;DHT22;33708;49.466;11.176;2023-09-18T07:44:50;36.80;1.00
4699;DHT22;33708;49.466;11.176;2023-09-18T07:47:18;40.00;91.80
4699;DHT22;33708;49.466;11.176;2023-09-18T07:49:44;37.10;96.00
4699;DHT22;33708;49.466;11.176;2023-09-18T07:52:10;37.20;99.90
4699;DHT22;33708;49.466;11.176;2023-09-18T07:54:35;38.30;1.00
4699;DHT22;33708;49.466;11.176;2023-09-18T07:57:01;37.80;1.00
4699;DHT22;33708;49.466;11.176;2023-09-18T07:59:26;38.20;1.00
4699;DHT22;33708;49.466;11.176;2023-09-18T08:01:52;39.10;1.00
4699;DHT22;33708;49.466;11.176;2023-09-18T08:04:20;39.80;1.00
4699;DHT22;33708;49.466;11.176;2023-09-18T08:06:46;39.50;1.00
4699;DHT22;33708;49.466;11.176;2023-09-18T08:09:12;37.50;1.00
4699;DHT22;33708;49.466;11.176;2023-09-18T08:11:39;35.90;1.00
4699;DHT22;33708;49.466;11.176;2023-09-18T08:14:07;34.70;1.00
4699;DHT22;33708;49.466;11.176;2023-09-18T08:16:33;33.10;99.90
4699;DHT22;33708;49.466;11.176;2023-09-18T08:19:01;34.20;1.00
4699;DHT22;33708;49.466;11.176;2023-09-18T08:21:27;36.00;1.00
4699;DHT22;33708;49.466;11.176;2023-09-18T08:23:54;36.30;1.00
4699;DHT22;33708;49.466;11.176;2023-09-18T08:26:21;36.30;1.00
4699;DHT22;33708;49.466;11.176;2023-09-18T08:28:47;37.70;1.00
4699;DHT22;33708;49.466;11.176;2023-09-18T08:31:13;39.10;1.00
4699;DHT22;33708;49.466;11.176;2023-09-18T08:33:41;35.40;1.00
4699;DHT22;33708;49.466;11.176;2023-09-18T08:36:07;34.70;1.00
4699;DHT22;33708;49.466;11.176;2023-09-18T08:38:33;34.60;1.00
4699;DHT22;33708;49.466;11.176;2023-09-18T08:40:59;37.00;1.00
4699;DHT22;33708;49.466;11.176;2023-09-18T08:43:24;37.80;1.00
4699;DHT22;33708;49.466;11.176;2023-09-18T08:45:51;38.40;1.00
4699;DHT22;33708;49.466;11.176;2023-09-18T08:48:18;39.50;1.00
4699;DHT22;33708;49.466;11.176;2023-09-18T08:50:45;37.70;1.00
4699;DHT22;33708;49.466;11.176;2023-09-18T08:53:11;38.80;1.00
4699;DHT22;33708;49.466;11.176;2023-09-18T08:55:37;39.40;1.00
4699;DHT22;33708;49.466;11.176;2023-09-18T08:58:03;39.60;1.00
4699;DHT22;33708;49.466;11.176;2023-09-18T09:00:29;39.40;1.00
4699;DHT22;33708;49.466;11.176;2023-09-18T09:02:55;39.70;1.00
4699;DHT22;33708;49.466;11.176;2023-09-18T09:05:21;38.00;1.00
4699;DHT22;33708;49.466;11.176;2023-09-18T09:07:48;38.50;1.00
4699;DHT22;33708;49.466;11.176;2023-09-18T09:10:14;38.70;1.00
4699;DHT22;33708;49.466;11.176;2023-09-18T09:12:59;38.60;1.00
4699;DHT22;33708;49.466;11.176;2023-09-18T09:15:34;36.70;1.00
4699;DHT22;33708;49.466;11.176;2023-09-18T09:18:06;34.50;1.00
4699;DHT22;33708;49.466;11.176;2023-09-18T09:20:33;34.00;1.00
4699;DHT22;33708;49.466;11.176;2023-09-18T09:23:03;32.90;1.00
4699;DHT22;33708;49.466;11.176;2023-09-18T09:25:30;32.90;99.90
4699;DHT22;33708;49.466;11.176;2023-09-18T09:27:58;31.90;1.00
4699;DHT22;33708;49.466;11.176;2023-09-18T09:30:25;32.60;1.00
4699;DHT22;33708;49.466;11.176;2023-09-18T09:32:53;32.20;1.00
4699;DHT22;33708;49.466;11.176;2023-09-18T09:35:37;31.90;61.60
4699;DHT22;33708;49.466;11.176;2023-09-18T09:38:07;32.00;1.00
4699;DHT22;33708;49.466;11.176;2023-09-18T09:40:34;31.90;1.00
4699;DHT22;33708;49.466;11.176;2023-09-18T09:43:00;31.90;1.00
4699;DHT22;33708;49.466;11.176;2023-09-18T09:45:29;31.50;1.00
4699;DHT22;33708;49.466;11.176;2023-09-18T09:47:56;31.70;1.00
4699;DHT22;33708;49.466;11.176;2023-09-18T09:50:23;31.70;1.00
4699;DHT22;33708;49.466;11.176;2023-09-18T09:52:51;31.10;1.00
4699;DHT22;33708;49.466;11.176;2023-09-18T09:55:31;30.70;1.00
4699;DHT22;33708;49.466;11.176;2023-09-18T09:58:01;30.40;99.90
4699;DHT22;33708;49.466;11.176;2023-09-18T10:00:46;29.90;99.90
4699;DHT22;33708;49.466;11.176;2023-09-18T10:03:19;29.40;99.90
4699;DHT22;33708;49.466;11.176;2023-09-18T10:05:50;29.00;99.90
4699;DHT22;33708;49.466;11.176;2023-09-18T10:08:18;28.80;99.90
4699;DHT22;33708;49.466;11.176;2023-09-18T10:10:53;28.60;99.90
4699;DHT22;33708;49.466;11.176;2023-09-18T10:15:53;29.00;1.00
4699;DHT22;33708;49.466;11.176;2023-09-18T10:18:28;28.70;99.90
4699;DHT22;33708;49.466;11.176;2023-09-18T10:21:14;29.00;99.90
4699;DHT22;33708;49.466;11.176;2023-09-18T10:26:27;29.00;1.00
4699;DHT22;33708;49.466;11.176;2023-09-18T10:28:57;29.00;1.00
4699;DHT22;33708;49.466;11.176;2023-09-18T10:31:28;28.90;1.00
4699;DHT22;33708;49.466;11.176;2023-09-18T10:33:56;29.20;1.00
4699;DHT22;33708;49.466;11.176;2023-09-18T10:36:24;29.40;1.00
4699;DHT22;33708;49.466;11.176;2023-09-18T10:38:50;29.10;1.00
4699;DHT22;33708;49.466;11.176;2023-09-18T10:41:20;29.20;1.00
4699;DHT22;33708;49.466;11.176;2023-09-18T10:43:46;29.10;1.00
4699;DHT22;33708;49.466;11.176;2023-09-18T10:46:15;29.20;1.00
4699;DHT22;33708;49.466;11.176;2023-09-18T10:48:42;29.20;1.00
4699;DHT22;33708;49.466;11.176;2023-09-18T10:51:09;29.20;1.00
4699;DHT22;33708;49.466;11.176;2023-09-18T10:53:35;29.60;1.00
4699;DHT22;33708;49.466;11.176;2023-09-18T10:56:04;29.20;1.00
4699;DHT22;33708;49.466;11.176;2023-09-18T10:58:30;28.70;1.00
4699;DHT22;33708;49.466;11.176;2023-09-18T11:00:56;28.60;1.00
4699;DHT22;33708;49.466;11.176;2023-09-18T11:03:24;28.50;1.00
4699;DHT22;33708;49.466;11.176;2023-09-18T11:06:03;28.10;1.00
4699;DHT22;33708;49.466;11.176;2023-09-18T11:08:35;28.00;1.00
4699;DHT22;33708;49.466;11.176;2023-09-18T11:11:10;27.90;1.00
4699;DHT22;33708;49.466;11.176;2023-09-18T11:13:40;28.00;1.00
4699;DHT22;33708;49.466;11.176;2023-09-18T11:21:27;27.00;1.00
4699;DHT22;33708;49.466;11.176;2023-09-18T11:24:00;26.80;1.00
4699;DHT22;33708;49.466;11.176;2023-09-18T11:26:31;27.20;1.00
4699;DHT22;33708;49.466;11.176;2023-09-18T11:29:17;27.50;1.00
4699;DHT22;33708;49.466;11.176;2023-09-18T11:31:49;27.40;1.00
4699;DHT22;33708;49.466;11.176;2023-09-18T11:36:41;27.20;1.00
4699;DHT22;33708;49.466;11.176;2023-09-18T11:39:07;27.70;1.00
4699;DHT22;33708;49.466;11.176;2023-09-18T11:41:35;27.80;1.00
4699;DHT22;33708;49.466;11.176;2023-09-18T11:46:45;28.30;1.00
4699;DHT22;33708;49.466;11.176;2023-09-18T11:49:12;27.70;1.00
4699;DHT22;33708;49.466;11.176;2023-09-18T11:51:38;27.90;1.00
4699;DHT22;33708;49.466;11.176;2023-09-18T11:54:05;27.60;1.00
4699;DHT22;33708;49.466;11.176;2023-09-18T11:56:33;27.60;1.00
4699;DHT22;33708;49.466;11.176;2023-09-18T11:58:59;27.60;1.00
4699;DHT22;33708;49.466;11.176;2023-09-18T12:01:35;27.50;1.00
4699;DHT22;33708;49.466;11.176;2023-09-18T12:04:05;26.90;1.00
4699;DHT22;33708;49.466;11.176;2023-09-18T12:06:40;26.70;1.00
4699;DHT22;33708;49.466;11.176;2023-09-18T12:09:17;26.30;1.00
4699;DHT22;33708;49.466;11.176;2023-09-18T12:11:45;26.30;1.00
4699;DHT22;33708;49.466;11.176;2023-09-18T12:17:37;25.90;1.00
4699;DHT22;33708;49.466;11.176;2023-09-18T12:20:28;25.70;1.00
4699;DHT22;33708;49.466;11.176;2023-09-18T12:23:03;25.50;1.00
4699;DHT22;33708;49.466;11.176;2023-09-18T12:25:59;25.20;1.00
4699;DHT22;33708;49.466;11.176;2023-09-18T12:28:37;25.00;31.30
4699;DHT22;33708;49.466;11.176;2023-09-18T12:31:25;24.90;99.90
4699;DHT22;33708;49.466;11.176;2023-09-18T12:33:55;24.50;99.90
4699;DHT22;33708;49.466;11.176;2023-09-18T12:36:24;24.20;99.90
4699;DHT22;33708;49.466;11.176;2023-09-18T12:38:59;24.10;99.90
4699;DHT22;33708;49.466;11.176;2023-09-18T12:41:56;23.60;99.90
4699;DHT22;33708;49.466;11.176;2023-09-18T12:44:28;23.50;99.90
4699;DHT22;33708;49.466;11.176;2023-09-18T12:47:05;23.10;99.90
4699;DHT22;33708;49.466;11.176;2023-09-18T12:52:49;22.70;37.20
4699;DHT22;33708;49.466;11.176;2023-09-18T12:55:28;22.40;99.90
4699;DHT22;33708;49.466;11.176;2023-09-18T12:57:54;22.20;99.90
4699;DHT22;33708;49.466;11.176;2023-09-18T13:00:20;22.20;99.90
4699;DHT22;33708;49.466;11.176;2023-09-18T13:02:57;22.20;1.00
4699;DHT22;33708;49.466;11.176;2023-09-18T13:06:05;22.80;98.80
4699;DHT22;33708;49.466;11.176;2023-09-18T13:08:31;22.30;1.00
4699;DHT22;33708;49.466;11.176;2023-09-18T13:10:57;22.20;1.00
4699;DHT22;33708;49.466;11.176;2023-09-18T13:13:29;22.20;1.00
4699;DHT22;33708;49.466;11.176;2023-09-18T13:15:58;21.60;1.00
4699;DHT22;33708;49.466;11.176;2023-09-18T13:18:25;22.10;1.00
4699;DHT22;33708;49.466;11.176;2023-09-18T13:20:54;21.60;70.60
4699;DHT22;33708;49.466;11.176;2023-09-18T13:23:30;21.60;1.00
4699;DHT22;33708;49.466;11.176;2023-09-18T13:26:27;21.50;1.00
4699;DHT22;33708;49.466;11.176;2023-09-18T13:29:17;21.40;1.00
4699;DHT22;33708;49.466;11.176;2023-09-18T13:31:43;21.50;94.90
4699;DHT22;33708;49.466;11.176;2023-09-18T13:34:09;21.50;1.00
4699;DHT22;33708;49.466;11.176;2023-09-18T13:36:39;21.60;1.00
4699;DHT22;33708;49.466;11.176;2023-09-18T13:39:12;21.30;1.00
4699;DHT22;33708;49.466;11.176;2023-09-18T13:41:39;21.40;99.90
4699;DHT22;33708;49.466;11.176;2023-09-18T13:44:09;21.30;99.90
4699;DHT22;33708;49.466;11.176;2023-09-18T13:46:44;21.30;99.90
4699;DHT22;33708;49.466;11.176;2023-09-18T13:49:09;21.10;99.90
4699;DHT22;33708;49.466;11.176;2023-09-18T13:51:55;21.20;99.90
4699;DHT22;33708;49.466;11.176;2023-09-18T13:54:22;21.20;99.90
4699;DHT22;33708;49.466;11.176;2023-09-18T13:56:51;21.10;99.90
4699;DHT22;33708;49.466;11.176;2023-09-18T13:59:18;20.80;99.90
4699;DHT22;33708;49.466;11.176;2023-09-18T14:01:44;20.90;99.90
4699;DHT22;33708;49.466;11.176;2023-09-18T14:04:10;20.80;99.90
4699;DHT22;33708;49.466;11.176;2023-09-18T14:06:39;20.50;99.90
4699;DHT22;33708;49.466;11.176;2023-09-18T14:09:07;20.70;1.00
4699;DHT22;33708;49.466;11.176;2023-09-18T14:11:38;20.50;27.70
4699;DHT22;33708;49.466;11.176;2023-09-18T14:14:04;20.60;1.00
4699;DHT22;33708;49.466;11.176;2023-09-18T14:16:29;20.80;99.90
4699;DHT22;33708;49.466;11.176;2023-09-18T14:18:59;20.50;99.90
4699;DHT22;33708;49.466;11.176;2023-09-18T14:21:25;20.40;61.50
4699;DHT22;33708;49.466;11.176;2023-09-18T14:23:55;20.40;99.90
4699;DHT22;33708;49.466;11.176;2023-09-18T14:26:22;20.10;99.90
4699;DHT22;33708;49.466;11.176;2023-09-18T14:28:48;20.00;99.90
4699;DHT22;33708;49.466;11.176;2023-09-18T14:31:14;19.70;99.90
4699;DHT22;33708;49.466;11.176;2023-09-18T14:33:43;20.00;99.90
4699;DHT22;33708;49.466;11.176;2023-09-18T14:36:09;19.90;99.90
4699;DHT22;33708;49.466;11.176;2023-09-18T14:38:35;19.90;99.90
4699;DHT22;33708;49.466;11.176;2023-09-18T14:41:05;19.70;99.90
4699;DHT22;33708;49.466;11.176;2023-09-18T14:43:32;19.70;99.90
4699;DHT22;33708;49.466;11.176;2023-09-18T14:46:04;19.20;99.90
4699;DHT22;33708;49.466;11.176;2023-09-18T14:48:30;19.30;99.90
4699;DHT22;33708;49.466;11.176;2023-09-18T14:50:58;19.30;99.90
4699;DHT22;33708;49.466;11.176;2023-09-18T14:53:23;19.40;99.90
4699;DHT22;33708;49.466;11.176;2023-09-18T14:55:59;19.50;99.90
4699;DHT22;33708;49.466;11.176;2023-09-18T14:58:25;19.50;99.90
4699;DHT22;33708;49.466;11.176;2023-09-18T15:00:51;19.50;99.90
4699;DHT22;33708;49.466;11.176;2023-09-18T15:03:17;19.70;1.00
4699;DHT22;33708;49.466;11.176;2023-09-18T15:05:49;19.80;1.00
4699;DHT22;33708;49.466;11.176;2023-09-18T15:08:19;19.70;1.00
4699;DHT22;33708;49.466;11.176;2023-09-18T15:10:48;19.30;1.00
4699;DHT22;33708;49.466;11.176;2023-09-18T15:13:14;19.00;99.90
4699;DHT22;33708;49.466;11.176;2023-09-18T15:15:43;19.30;27.90
4699;DHT22;33708;49.466;11.176;2023-09-18T15:18:10;19.40;99.90
4699;DHT22;33708;49.466;11.176;2023-09-18T15:20:36;19.40;99.90
4699;DHT22;33708;49.466;11.176;2023-09-18T15:23:10;19.50;99.90
4699;DHT22;33708;49.466;11.176;2023-09-18T15:25:45;19.80;1.00
4699;DHT22;33708;49.466;11.176;2023-09-18T15:28:12;19.90;99.90
4699;DHT22;33708;49.466;11.176;2023-09-18T15:30:41;19.80;1.00
4699;DHT22;33708;49.466;11.176;2023-09-18T15:33:07;19.70;1.00
4699;DHT22;33708;49.466;11.176;2023-09-18T15:35:36;19.70;1.00
4699;DHT22;33708;49.466;11.176;2023-09-18T15:38:02;19.50;1.00
4699;DHT22;33708;49.466;11.176;2023-09-18T15:40:29;19.50;99.90
4699;DHT22;33708;49.466;11.176;2023-09-18T15:43:02;19.10;1.00
4699;DHT22;33708;49.466;11.176;2023-09-18T15:45:32;19.40;1.00
4699;DHT22;33708;49.466;11.176;2023-09-18T15:48:01;19.50;99.90
4699;DHT22;33708;49.466;11.176;2023-09-18T15:50:27;19.60;63.00
4699;DHT22;33708;49.466;11.176;2023-09-18T15:52:56;19.70;1.00
4699;DHT22;33708;49.466;11.176;2023-09-18T15:55:48;19.70;99.90
4699;DHT22;33708;49.466;11.176;2023-09-18T15:58:25;19.80;99.90
4699;DHT22;33708;49.466;11.176;2023-09-18T16:00:54;19.80;1.00
4699;DHT22;33708;49.466;11.176;2023-09-18T16:03:26;19.80;1.00
4699;DHT22;33708;49.466;11.176;2023-09-18T16:05:55;19.70;1.00
4699;DHT22;33708;49.466;11.176;2023-09-18T16:08:21;19.50;7.10
4699;DHT22;33708;49.466;11.176;2023-09-18T16:10:47;19.40;1.00
4699;DHT22;33708;49.466;11.176;2023-09-18T16:13:16;19.10;99.90
4699;DHT22;33708;49.466;11.176;2023-09-18T16:15:42;18.70;1.00
4699;DHT22;33708;49.466;11.176;2023-09-18T16:18:11;18.50;1.00
4699;DHT22;33708;49.466;11.176;2023-09-18T16:20:40;18.50;99.90